sensor_id;sensor_type;location;lat;lon;timestamp;P1;durP1;ratioP1;P2;durP2;ratioP2
21274;SDS011;36472;52.170;20.884;2023-09-19T00:00:56;14.43;;;10.57;;
21274;SDS011;36472;52.170;20.884;2023-09-19T00:03:39;12.55;;;11.25;;
21274;SDS011;36472;52.170;20.884;2023-09-19T00:06:10;12.65;;;10.55;;
21274;SDS011;36472;52.170;20.884;2023-09-19T00:08:40;12.25;;;10.73;;
21274;SDS011;36472;52.170;20.884;2023-09-19T00:11:12;12.70;;;11.23;;
21274;SDS011;36472;52.170;20.884;2023-09-19T00:13:41;13.23;;;11.63;;
21274;SDS011;36472;52.170;20.884;2023-09-19T00:16:10;14.25;;;11.63;;
21274;SDS011;36472;52.170;20.884;2023-09-19T00:18:41;13.45;;;11.50;;
21274;SDS011;36472;52.170;20.884;2023-09-19T00:21:10;14.23;;;11.70;;
21274;SDS011;36472;52.170;20.884;2023-09-19T00:23:39;12.35;;;11.07;;
21274;SDS011;36472;52.170;20.884;2023-09-19T00:26:08;12.93;;;11.55;;
21274;SDS011;36472;52.170;20.884;2023-09-19T00:28:40;15.05;;;12.18;;
21274;SDS011;36472;52.170;20.884;2023-09-19T00:31:09;12.93;;;11.55;;
21274;SDS011;36472;52.170;20.884;2023-09-19T00:33:38;15.48;;;12.00;;
21274;SDS011;36472;52.170;20.884;2023-09-19T00:36:07;13.68;;;12.02;;
21274;SDS011;36472;52.170;20.884;2023-09-19T00:38:36;13.63;;;12.07;;
21274;SDS011;36472;52.170;20.884;2023-09-19T00:41:06;14.57;;;11.48;;
21274;SDS011;36472;52.170;20.884;2023-09-19T00:43:35;15.77;;;11.07;;
21274;SDS011;36472;52.170;20.884;2023-09-19T00:46:06;14.60;;;12.13;;
21274;SDS011;36472;52.170;20.884;2023-09-19T00:48:37;13.88;;;11.90;;
21274;SDS011;36472;52.170;20.884;2023-09-19T00:51:11;13.02;;;11.60;;
21274;SDS011;36472;52.170;20.884;2023-09-19T00:53:46;13.18;;;11.70;;
21274;SDS011;36472;52.170;20.884;2023-09-19T00:56:15;13.82;;;11.48;;
21274;SDS011;36472;52.170;20.884;2023-09-19T00:58:46;15.63;;;11.95;;
21274;SDS011;36472;52.170;20.884;2023-09-19T01:01:17;13.60;;;11.18;;
21274;SDS011;36472;52.170;20.884;2023-09-19T01:03:48;14.55;;;11.40;;
21274;SDS011;36472;52.170;20.884;2023-09-19T01:06:17;13.95;;;11.90;;
21274;SDS011;36472;52.170;20.884;2023-09-19T01:08:48;13.55;;;11.43;;
21274;SDS011;36472;52.170;20.884;2023-09-19T01:11:21;12.95;;;11.52;;
21274;SDS011;36472;52.170;20.884;2023-09-19T01:14:02;14.57;;;11.43;;
21274;SDS011;36472;52.170;20.884;2023-09-19T01:16:50;15.00;;;11.70;;
21274;SDS011;36472;52.170;20.884;2023-09-19T01:19:35;14.80;;;12.13;;
21274;SDS011;36472;52.170;20.884;2023-09-19T01:22:42;15.25;;;12.20;;
21274;SDS011;36472;52.170;20.884;2023-09-19T01:25:39;14.00;;;11.77;;
21274;SDS011;36472;52.170;20.884;2023-09-19T01:28:42;13.50;;;11.63;;
21274;SDS011;36472;52.170;20.884;2023-09-19T01:31:26;15.73;;;11.93;;
21274;SDS011;36472;52.170;20.884;2023-09-19T01:34:02;13.57;;;12.13;;
21274;SDS011;36472;52.170;20.884;2023-09-19T01:36:34;13.25;;;11.65;;
21274;SDS011;36472;52.170;20.884;2023-09-19T01:39:07;14.57;;;11.18;;
21274;SDS011;36472;52.170;20.884;2023-09-19T01:41:45;16.38;;;12.18;;
21274;SDS011;36472;52.170;20.884;2023-09-19T01:44:29;14.15;;;11.98;;
21274;SDS011;36472;52.170;20.884;2023-09-19T01:47:12;13.48;;;12.07;;
21274;SDS011;36472;52.170;20.884;2023-09-19T01:49:55;14.27;;;11.70;;
21274;SDS011;36472;52.170;20.884;2023-09-19T01:52:35;16.38;;;12.15;;
21274;SDS011;36472;52.170;20.884;2023-09-19T01:55:15;16.55;;;12.20;;
21274;SDS011;36472;52.170;20.884;2023-09-19T01:57:48;15.13;;;12.70;;
21274;SDS011;36472;52.170;20.884;2023-09-19T02:00:26;15.40;;;12.00;;
21274;SDS011;36472;52.170;20.884;2023-09-19T02:03:00;18.25;;;13.10;;
21274;SDS011;36472;52.170;20.884;2023-09-19T02:05:31;13.65;;;11.40;;
21274;SDS011;36472;52.170;20.884;2023-09-19T02:08:00;14.68;;;12.77;;
21274;SDS011;36472;52.170;20.884;2023-09-19T02:10:29;17.02;;;12.82;;
21274;SDS011;36472;52.170;20.884;2023-09-19T02:12:59;14.00;;;12.07;;
21274;SDS011;36472;52.170;20.884;2023-09-19T02:15:31;15.10;;;12.30;;
21274;SDS011;36472;52.170;20.884;2023-09-19T02:18:03;14.07;;;11.93;;
21274;SDS011;36472;52.170;20.884;2023-09-19T02:20:32;13.73;;;11.27;;
21274;SDS011;36472;52.170;20.884;2023-09-19T02:23:01;16.10;;;12.07;;
21274;SDS011;36472;52.170;20.884;2023-09-19T02:25:31;14.45;;;11.73;;
21274;SDS011;36472;52.170;20.884;2023-09-19T02:28:00;14.32;;;12.27;;
21274;SDS011;36472;52.170;20.884;2023-09-19T02:30:29;14.13;;;11.35;;
21274;SDS011;36472;52.170;20.884;2023-09-19T02:32:59;16.35;;;11.95;;
21274;SDS011;36472;52.170;20.884;2023-09-19T02:35:31;13.07;;;11.73;;
21274;SDS011;36472;52.170;20.884;2023-09-19T02:38:03;13.15;;;11.65;;
21274;SDS011;36472;52.170;20.884;2023-09-19T02:40:33;15.30;;;11.48;;
21274;SDS011;36472;52.170;20.884;2023-09-19T02:43:04;13.57;;;11.77;;
21274;SDS011;36472;52.170;20.884;2023-09-19T02:45:33;14.23;;;12.30;;
21274;SDS011;36472;52.170;20.884;2023-09-19T02:48:03;15.45;;;12.60;;
21274;SDS011;36472;52.170;20.884;2023-09-19T02:50:35;16.67;;;12.50;;
21274;SDS011;36472;52.170;20.884;2023-09-19T02:53:05;12.55;;;11.02;;
21274;SDS011;36472;52.170;20.884;2023-09-19T02:55:34;15.07;;;12.00;;
21274;SDS011;36472;52.170;20.884;2023-09-19T02:58:03;16.67;;;12.60;;
21274;SDS011;36472;52.170;20.884;2023-09-19T03:00:34;13.82;;;12.32;;
21274;SDS011;36472;52.170;20.884;2023-09-19T03:03:03;14.20;;;11.80;;
21274;SDS011;36472;52.170;20.884;2023-09-19T03:05:36;15.82;;;12.85;;
21274;SDS011;36472;52.170;20.884;2023-09-19T03:08:05;16.10;;;12.35;;
21274;SDS011;36472;52.170;20.884;2023-09-19T03:10:35;15.48;;;12.57;;
21274;SDS011;36472;52.170;20.884;2023-09-19T03:13:04;14.80;;;12.00;;
21274;SDS011;36472;52.170;20.884;2023-09-19T03:15:36;14.75;;;12.25;;
21274;SDS011;36472;52.170;20.884;2023-09-19T03:18:11;14.70;;;12.43;;
21274;SDS011;36472;52.170;20.884;2023-09-19T03:20:42;14.20;;;12.38;;
21274;SDS011;36472;52.170;20.884;2023-09-19T03:23:11;15.85;;;12.18;;
21274;SDS011;36472;52.170;20.884;2023-09-19T03:25:40;13.85;;;12.45;;
21274;SDS011;36472;52.170;20.884;2023-09-19T03:28:09;16.02;;;12.60;;
21274;SDS011;36472;52.170;20.884;2023-09-19T03:30:38;15.27;;;12.13;;
21274;SDS011;36472;52.170;20.884;2023-09-19T03:33:07;13.20;;;11.80;;
21274;SDS011;36472;52.170;20.884;2023-09-19T03:35:37;14.05;;;11.95;;
21274;SDS011;36472;52.170;20.884;2023-09-19T03:38:09;14.93;;;12.32;;
21274;SDS011;36472;52.170;20.884;2023-09-19T03:40:38;15.00;;;12.07;;
21274;SDS011;36472;52.170;20.884;2023-09-19T03:43:07;14.20;;;12.57;;
21274;SDS011;36472;52.170;20.884;2023-09-19T03:45:37;14.55;;;11.95;;
21274;SDS011;36472;52.170;20.884;2023-09-19T03:48:08;14.63;;;12.95;;
21274;SDS011;36472;52.170;20.884;2023-09-19T03:50:37;13.82;;;11.90;;
21274;SDS011;36472;52.170;20.884;2023-09-19T03:53:07;13.63;;;11.90;;
21274;SDS011;36472;52.170;20.884;2023-09-19T03:55:37;12.93;;;11.35;;
21274;SDS011;36472;52.170;20.884;2023-09-19T03:58:07;16.13;;;12.82;;
21274;SDS011;36472;52.170;20.884;2023-09-19T04:00:35;17.30;;;12.45;;
21274;SDS011;36472;52.170;20.884;2023-09-19T04:03:06;15.63;;;12.70;;
21274;SDS011;36472;52.170;20.884;2023-09-19T04:05:35;13.05;;;11.65;;
21274;SDS011;36472;52.170;20.884;2023-09-19T04:08:04;15.07;;;12.07;;
21274;SDS011;36472;52.170;20.884;2023-09-19T04:10:33;13.50;;;12.07;;
21274;SDS011;36472;52.170;20.884;2023-09-19T04:13:04;16.67;;;11.60;;
21274;SDS011;36472;52.170;20.884;2023-09-19T04:15:34;16.80;;;12.77;;
21274;SDS011;36472;52.170;20.884;2023-09-19T04:18:04;13.63;;;12.18;;
21274;SDS011;36472;52.170;20.884;2023-09-19T04:20:33;15.65;;;12.48;;
21274;SDS011;36472;52.170;20.884;2023-09-19T04:23:03;14.95;;;12.80;;
21274;SDS011;36472;52.170;20.884;2023-09-19T04:25:32;13.02;;;11.60;;
21274;SDS011;36472;52.170;20.884;2023-09-19T04:28:02;14.68;;;12.15;;
21274;SDS011;36472;52.170;20.884;2023-09-19T04:30:33;15.32;;;12.88;;
21274;SDS011;36472;52.170;20.884;2023-09-19T04:37:35;15.20;;;12.10;;
21274;SDS011;36472;52.170;20.884;2023-09-19T04:40:07;13.30;;;11.90;;
21274;SDS011;36472;52.170;20.884;2023-09-19T04:42:40;13.80;;;12.35;;
21274;SDS011;36472;52.170;20.884;2023-09-19T04:45:11;17.27;;;12.88;;
21274;SDS011;36472;52.170;20.884;2023-09-19T04:47:40;15.18;;;11.98;;
21274;SDS011;36472;52.170;20.884;2023-09-19T04:50:11;13.73;;;12.13;;
21274;SDS011;36472;52.170;20.884;2023-09-19T04:52:41;14.32;;;12.07;;
21274;SDS011;36472;52.170;20.884;2023-09-19T04:55:12;18.00;;;12.35;;
21274;SDS011;36472;52.170;20.884;2023-09-19T04:57:45;15.35;;;11.88;;
21274;SDS011;36472;52.170;20.884;2023-09-19T05:00:17;14.38;;;11.65;;
21274;SDS011;36472;52.170;20.884;2023-09-19T05:02:50;12.85;;;11.10;;
21274;SDS011;36472;52.170;20.884;2023-09-19T05:05:21;16.13;;;12.25;;
21274;SDS011;36472;52.170;20.884;2023-09-19T05:07:53;14.82;;;12.25;;
21274;SDS011;36472;52.170;20.884;2023-09-19T05:10:23;15.43;;;12.25;;
21274;SDS011;36472;52.170;20.884;2023-09-19T05:12:55;13.30;;;11.77;;
21274;SDS011;36472;52.170;20.884;2023-09-19T05:15:25;12.68;;;11.38;;
21274;SDS011;36472;52.170;20.884;2023-09-19T05:17:54;15.07;;;11.93;;
21274;SDS011;36472;52.170;20.884;2023-09-19T05:20:24;14.60;;;11.88;;
21274;SDS011;36472;52.170;20.884;2023-09-19T05:22:58;14.73;;;11.80;;
21274;SDS011;36472;52.170;20.884;2023-09-19T05:25:29;13.23;;;11.82;;
21274;SDS011;36472;52.170;20.884;2023-09-19T05:28:05;14.68;;;11.32;;
21274;SDS011;36472;52.170;20.884;2023-09-19T05:30:37;12.35;;;11.02;;
21274;SDS011;36472;52.170;20.884;2023-09-19T05:37:39;14.80;;;10.85;;
21274;SDS011;36472;52.170;20.884;2023-09-19T05:40:08;13.13;;;11.52;;
21274;SDS011;36472;52.170;20.884;2023-09-19T05:42:39;16.55;;;11.63;;
21274;SDS011;36472;52.170;20.884;2023-09-19T05:45:08;12.95;;;10.73;;
21274;SDS011;36472;52.170;20.884;2023-09-19T05:47:41;16.20;;;11.98;;
21274;SDS011;36472;52.170;20.884;2023-09-19T05:50:12;13.63;;;11.32;;
21274;SDS011;36472;52.170;20.884;2023-09-19T05:52:42;12.57;;;11.02;;
21274;SDS011;36472;52.170;20.884;2023-09-19T05:55:12;13.25;;;11.18;;
21274;SDS011;36472;52.170;20.884;2023-09-19T05:57:41;13.57;;;11.13;;
21274;SDS011;36472;52.170;20.884;2023-09-19T06:00:10;13.35;;;11.18;;
21274;SDS011;36472;52.170;20.884;2023-09-19T06:02:43;13.32;;;10.90;;
21274;SDS011;36472;52.170;20.884;2023-09-19T06:05:12;14.68;;;11.85;;
21274;SDS011;36472;52.170;20.884;2023-09-19T06:07:42;14.35;;;11.40;;
21274;SDS011;36472;52.170;20.884;2023-09-19T06:10:11;12.23;;;10.93;;
21274;SDS011;36472;52.170;20.884;2023-09-19T06:12:40;13.07;;;11.25;;
21274;SDS011;36472;52.170;20.884;2023-09-19T06:15:11;11.77;;;10.57;;
21274;SDS011;36472;52.170;20.884;2023-09-19T06:17:45;12.75;;;11.35;;
21274;SDS011;36472;52.170;20.884;2023-09-19T06:20:15;12.68;;;11.05;;
21274;SDS011;36472;52.170;20.884;2023-09-19T06:22:50;15.27;;;11.30;;
21274;SDS011;36472;52.170;20.884;2023-09-19T06:25:22;15.55;;;12.07;;
21274;SDS011;36472;52.170;20.884;2023-09-19T06:32:26;12.85;;;11.25;;
21274;SDS011;36472;52.170;20.884;2023-09-19T06:34:57;16.23;;;11.75;;
21274;SDS011;36472;52.170;20.884;2023-09-19T06:37:27;16.30;;;12.30;;
21274;SDS011;36472;52.170;20.884;2023-09-19T06:44:28;13.13;;;11.73;;
21274;SDS011;36472;52.170;20.884;2023-09-19T06:46:58;13.23;;;11.77;;
21274;SDS011;36472;52.170;20.884;2023-09-19T06:49:27;14.45;;;11.60;;
21274;SDS011;36472;52.170;20.884;2023-09-19T06:51:59;13.50;;;11.68;;
21274;SDS011;36472;52.170;20.884;2023-09-19T06:54:29;12.50;;;11.20;;
21274;SDS011;36472;52.170;20.884;2023-09-19T07:01:35;16.02;;;10.80;;
21274;SDS011;36472;52.170;20.884;2023-09-19T07:04:05;13.20;;;11.50;;
21274;SDS011;36472;52.170;20.884;2023-09-19T07:06:34;13.15;;;11.23;;
21274;SDS011;36472;52.170;20.884;2023-09-19T07:09:04;14.18;;;11.20;;
21274;SDS011;36472;52.170;20.884;2023-09-19T07:11:33;12.50;;;10.68;;
21274;SDS011;36472;52.170;20.884;2023-09-19T07:14:04;13.88;;;11.23;;
21274;SDS011;36472;52.170;20.884;2023-09-19T07:16:33;12.05;;;10.70;;
21274;SDS011;36472;52.170;20.884;2023-09-19T07:19:03;13.25;;;10.82;;
21274;SDS011;36472;52.170;20.884;2023-09-19T07:21:32;13.02;;;10.75;;
21274;SDS011;36472;52.170;20.884;2023-09-19T07:24:02;12.02;;;10.82;;
21274;SDS011;36472;52.170;20.884;2023-09-19T07:26:35;12.98;;;11.55;;
21274;SDS011;36472;52.170;20.884;2023-09-19T07:29:06;13.18;;;10.27;;
21274;SDS011;36472;52.170;20.884;2023-09-19T07:36:11;14.77;;;11.95;;
21274;SDS011;36472;52.170;20.884;2023-09-19T07:38:41;15.05;;;11.88;;
21274;SDS011;36472;52.170;20.884;2023-09-19T07:41:14;14.98;;;12.30;;
21274;SDS011;36472;52.170;20.884;2023-09-19T07:43:43;16.20;;;12.50;;
21274;SDS011;36472;52.170;20.884;2023-09-19T07:46:13;16.27;;;12.57;;
21274;SDS011;36472;52.170;20.884;2023-09-19T07:48:42;14.70;;;12.57;;
21274;SDS011;36472;52.170;20.884;2023-09-19T07:51:18;15.50;;;13.90;;
21274;SDS011;36472;52.170;20.884;2023-09-19T07:53:47;14.48;;;12.40;;
21274;SDS011;36472;52.170;20.884;2023-09-19T07:56:18;14.90;;;12.73;;
21274;SDS011;36472;52.170;20.884;2023-09-19T07:58:50;14.88;;;13.25;;
21274;SDS011;36472;52.170;20.884;2023-09-19T08:01:19;14.65;;;12.60;;
21274;SDS011;36472;52.170;20.884;2023-09-19T08:03:51;14.85;;;12.52;;
21274;SDS011;36472;52.170;20.884;2023-09-19T08:10:52;14.77;;;12.40;;
21274;SDS011;36472;52.170;20.884;2023-09-19T08:13:24;13.80;;;12.30;;
21274;SDS011;36472;52.170;20.884;2023-09-19T08:15:54;16.45;;;12.63;;
21274;SDS011;36472;52.170;20.884;2023-09-19T08:18:23;14.65;;;12.13;;
21274;SDS011;36472;52.170;20.884;2023-09-19T08:20:53;13.18;;;11.40;;
21274;SDS011;36472;52.170;20.884;2023-09-19T08:23:25;13.38;;;11.48;;
21274;SDS011;36472;52.170;20.884;2023-09-19T08:25:56;12.00;;;10.55;;
21274;SDS011;36472;52.170;20.884;2023-09-19T08:28:35;12.52;;;10.88;;
21274;SDS011;36472;52.170;20.884;2023-09-19T08:31:08;14.52;;;11.65;;
21274;SDS011;36472;52.170;20.884;2023-09-19T08:33:37;16.02;;;11.95;;
21274;SDS011;36472;52.170;20.884;2023-09-19T08:36:07;13.32;;;11.93;;
21274;SDS011;36472;52.170;20.884;2023-09-19T08:38:36;12.45;;;11.15;;
21274;SDS011;36472;52.170;20.884;2023-09-19T08:41:06;13.52;;;12.13;;
21274;SDS011;36472;52.170;20.884;2023-09-19T08:43:37;13.35;;;11.95;;
21274;SDS011;36472;52.170;20.884;2023-09-19T08:46:09;15.05;;;12.63;;
21274;SDS011;36472;52.170;20.884;2023-09-19T08:48:45;13.38;;;11.98;;
21274;SDS011;36472;52.170;20.884;2023-09-19T08:51:25;16.38;;;12.88;;
21274;SDS011;36472;52.170;20.884;2023-09-19T08:54:02;15.98;;;12.82;;
21274;SDS011;36472;52.170;20.884;2023-09-19T08:56:37;12.93;;;11.52;;
21274;SDS011;36472;52.170;20.884;2023-09-19T09:03:39;14.48;;;12.25;;
21274;SDS011;36472;52.170;20.884;2023-09-19T09:06:15;14.38;;;11.82;;
21274;SDS011;36472;52.170;20.884;2023-09-19T09:08:45;14.85;;;11.18;;
21274;SDS011;36472;52.170;20.884;2023-09-19T09:11:15;12.13;;;10.85;;
21274;SDS011;36472;52.170;20.884;2023-09-19T09:13:45;12.52;;;11.23;;
21274;SDS011;36472;52.170;20.884;2023-09-19T09:16:15;12.23;;;11.02;;
21274;SDS011;36472;52.170;20.884;2023-09-19T09:18:48;16.70;;;11.57;;
21274;SDS011;36472;52.170;20.884;2023-09-19T09:21:20;19.70;;;12.60;;
21274;SDS011;36472;52.170;20.884;2023-09-19T09:23:53;13.23;;;11.10;;
21274;SDS011;36472;52.170;20.884;2023-09-19T09:29:14;16.20;;;10.68;;
21274;SDS011;36472;52.170;20.884;2023-09-19T09:31:47;13.98;;;10.05;;
21274;SDS011;36472;52.170;20.884;2023-09-19T09:34:18;19.15;;;12.25;;
21274;SDS011;36472;52.170;20.884;2023-09-19T09:36:48;15.77;;;11.43;;
21274;SDS011;36472;52.170;20.884;2023-09-19T09:39:29;17.35;;;11.98;;
21274;SDS011;36472;52.170;20.884;2023-09-19T09:41:59;14.18;;;11.32;;
21274;SDS011;36472;52.170;20.884;2023-09-19T09:44:36;15.43;;;11.85;;
21274;SDS011;36472;52.170;20.884;2023-09-19T09:47:05;15.05;;;11.73;;
21274;SDS011;36472;52.170;20.884;2023-09-19T09:49:53;15.55;;;12.10;;
21274;SDS011;36472;52.170;20.884;2023-09-19T09:52:44;13.07;;;11.55;;
21274;SDS011;36472;52.170;20.884;2023-09-19T09:55:14;15.23;;;11.15;;
21274;SDS011;36472;52.170;20.884;2023-09-19T09:57:52;13.98;;;10.85;;
21274;SDS011;36472;52.170;20.884;2023-09-19T10:00:55;13.18;;;11.38;;
21274;SDS011;36472;52.170;20.884;2023-09-19T10:03:32;12.95;;;11.30;;
21274;SDS011;36472;52.170;20.884;2023-09-19T10:06:09;14.85;;;11.85;;
21274;SDS011;36472;52.170;20.884;2023-09-19T10:08:57;12.50;;;10.95;;
21274;SDS011;36472;52.170;20.884;2023-09-19T10:11:42;12.88;;;9.55;;
21274;SDS011;36472;52.170;20.884;2023-09-19T10:14:13;11.73;;;9.73;;
21274;SDS011;36472;52.170;20.884;2023-09-19T10:16:47;11.45;;;8.52;;
21274;SDS011;36472;52.170;20.884;2023-09-19T10:19:20;10.73;;;8.25;;
21274;SDS011;36472;52.170;20.884;2023-09-19T10:21:59;8.57;;;7.70;;
21274;SDS011;36472;52.170;20.884;2023-09-19T10:24:29;8.88;;;7.70;;
21274;SDS011;36472;52.170;20.884;2023-09-19T10:27:06;10.75;;;7.68;;
21274;SDS011;36472;52.170;20.884;2023-09-19T10:29:36;13.88;;;7.72;;
21274;SDS011;36472;52.170;20.884;2023-09-19T10:36:49;8.48;;;7.43;;
21274;SDS011;36472;52.170;20.884;2023-09-19T10:39:22;8.40;;;7.60;;
21274;SDS011;36472;52.170;20.884;2023-09-19T10:41:53;9.38;;;7.90;;
21274;SDS011;36472;52.170;20.884;2023-09-19T10:44:26;8.85;;;7.95;;
21274;SDS011;36472;52.170;20.884;2023-09-19T10:46:58;8.55;;;7.72;;
21274;SDS011;36472;52.170;20.884;2023-09-19T10:49:28;8.95;;;7.15;;
21274;SDS011;36472;52.170;20.884;2023-09-19T10:51:59;8.55;;;6.95;;
21274;SDS011;36472;52.170;20.884;2023-09-19T10:54:31;7.15;;;6.45;;
21274;SDS011;36472;52.170;20.884;2023-09-19T10:57:04;7.30;;;6.00;;
21274;SDS011;36472;52.170;20.884;2023-09-19T10:59:35;7.78;;;6.90;;
21274;SDS011;36472;52.170;20.884;2023-09-19T11:02:16;7.88;;;7.15;;
21274;SDS011;36472;52.170;20.884;2023-09-19T11:04:47;10.93;;;7.72;;
21274;SDS011;36472;52.170;20.884;2023-09-19T11:07:17;11.07;;;8.27;;
21274;SDS011;36472;52.170;20.884;2023-09-19T11:09:48;9.10;;;7.82;;
21274;SDS011;36472;52.170;20.884;2023-09-19T11:23:23;10.18;;;7.05;;
21274;SDS011;36472;52.170;20.884;2023-09-19T11:25:55;8.45;;;6.00;;
21274;SDS011;36472;52.170;20.884;2023-09-19T11:28:32;7.95;;;4.88;;
21274;SDS011;36472;52.170;20.884;2023-09-19T11:40:34;7.78;;;5.88;;
21274;SDS011;36472;52.170;20.884;2023-09-19T11:46:02;6.25;;;5.63;;
21274;SDS011;36472;52.170;20.884;2023-09-19T11:48:35;7.57;;;5.15;;
21274;SDS011;36472;52.170;20.884;2023-09-19T11:51:19;7.00;;;6.05;;
21274;SDS011;36472;52.170;20.884;2023-09-19T11:53:55;6.82;;;6.03;;
21274;SDS011;36472;52.170;20.884;2023-09-19T11:56:27;6.80;;;5.57;;
21274;SDS011;36472;52.170;20.884;2023-09-19T11:59:00;7.35;;;5.72;;
21274;SDS011;36472;52.170;20.884;2023-09-19T12:01:31;7.78;;;5.70;;
21274;SDS011;36472;52.170;20.884;2023-09-19T12:04:02;6.43;;;5.28;;
21274;SDS011;36472;52.170;20.884;2023-09-19T12:11:05;5.85;;;5.25;;
21274;SDS011;36472;52.170;20.884;2023-09-19T12:13:40;8.02;;;5.45;;
21274;SDS011;36472;52.170;20.884;2023-09-19T12:16:17;7.18;;;5.53;;
21274;SDS011;36472;52.170;20.884;2023-09-19T12:18:49;5.88;;;5.00;;
21274;SDS011;36472;52.170;20.884;2023-09-19T12:21:22;6.97;;;5.72;;
21274;SDS011;36472;52.170;20.884;2023-09-19T12:23:59;8.60;;;5.93;;
21274;SDS011;36472;52.170;20.884;2023-09-19T12:26:40;8.73;;;5.40;;
21274;SDS011;36472;52.170;20.884;2023-09-19T12:29:12;9.77;;;6.18;;
21274;SDS011;36472;52.170;20.884;2023-09-19T12:31:50;7.07;;;5.43;;
21274;SDS011;36472;52.170;20.884;2023-09-19T12:34:22;7.00;;;5.75;;
21274;SDS011;36472;52.170;20.884;2023-09-19T12:37:04;7.50;;;5.57;;
21274;SDS011;36472;52.170;20.884;2023-09-19T12:39:39;8.20;;;6.03;;
21274;SDS011;36472;52.170;20.884;2023-09-19T12:42:10;6.32;;;5.65;;
21274;SDS011;36472;52.170;20.884;2023-09-19T12:44:41;6.80;;;6.10;;
21274;SDS011;36472;52.170;20.884;2023-09-19T12:47:15;8.20;;;5.82;;
21274;SDS011;36472;52.170;20.884;2023-09-19T12:52:45;6.78;;;5.78;;
21274;SDS011;36472;52.170;20.884;2023-09-19T12:55:20;6.63;;;5.30;;
21274;SDS011;36472;52.170;20.884;2023-09-19T12:57:58;7.88;;;6.18;;
21274;SDS011;36472;52.170;20.884;2023-09-19T13:00:36;6.63;;;5.40;;
21274;SDS011;36472;52.170;20.884;2023-09-19T13:07:41;7.85;;;6.10;;
21274;SDS011;36472;52.170;20.884;2023-09-19T13:10:13;6.43;;;5.72;;
21274;SDS011;36472;52.170;20.884;2023-09-19T13:12:43;6.22;;;5.63;;
21274;SDS011;36472;52.170;20.884;2023-09-19T13:15:14;9.48;;;5.88;;
21274;SDS011;36472;52.170;20.884;2023-09-19T13:17:47;6.90;;;5.93;;
21274;SDS011;36472;52.170;20.884;2023-09-19T13:20:21;6.82;;;6.03;;
21274;SDS011;36472;52.170;20.884;2023-09-19T13:27:27;8.23;;;6.00;;
21274;SDS011;36472;52.170;20.884;2023-09-19T13:29:56;7.75;;;5.97;;
21274;SDS011;36472;52.170;20.884;2023-09-19T13:36:58;7.88;;;5.55;;
21274;SDS011;36472;52.170;20.884;2023-09-19T13:39:28;11.07;;;6.10;;
21274;SDS011;36472;52.170;20.884;2023-09-19T13:41:57;7.10;;;5.82;;
21274;SDS011;36472;52.170;20.884;2023-09-19T13:49:03;8.52;;;6.78;;
21274;SDS011;36472;52.170;20.884;2023-09-19T13:51:32;9.88;;;6.80;;
21274;SDS011;36472;52.170;20.884;2023-09-19T13:54:01;9.48;;;7.20;;
21274;SDS011;36472;52.170;20.884;2023-09-19T13:56:30;10.80;;;7.95;;
21274;SDS011;36472;52.170;20.884;2023-09-19T13:59:00;10.00;;;8.63;;
21274;SDS011;36472;52.170;20.884;2023-09-19T14:01:30;10.27;;;8.35;;
21274;SDS011;36472;52.170;20.884;2023-09-19T14:04:00;13.88;;;9.82;;
21274;SDS011;36472;52.170;20.884;2023-09-19T14:06:30;12.15;;;9.98;;
21274;SDS011;36472;52.170;20.884;2023-09-19T14:09:00;11.45;;;9.88;;
21274;SDS011;36472;52.170;20.884;2023-09-19T14:11:30;11.40;;;9.68;;
21274;SDS011;36472;52.170;20.884;2023-09-19T14:14:00;10.57;;;9.65;;
21274;SDS011;36472;52.170;20.884;2023-09-19T14:16:30;7.82;;;6.70;;
21274;SDS011;36472;52.170;20.884;2023-09-19T14:19:01;7.45;;;6.45;;
21274;SDS011;36472;52.170;20.884;2023-09-19T14:21:32;8.95;;;6.10;;
21274;SDS011;36472;52.170;20.884;2023-09-19T14:28:32;8.18;;;5.40;;
21274;SDS011;36472;52.170;20.884;2023-09-19T14:31:05;7.88;;;5.47;;
21274;SDS011;36472;52.170;20.884;2023-09-19T14:33:36;5.85;;;5.28;;
21274;SDS011;36472;52.170;20.884;2023-09-19T14:36:07;6.55;;;5.68;;
21274;SDS011;36472;52.170;20.884;2023-09-19T14:38:38;7.75;;;5.38;;
21274;SDS011;36472;52.170;20.884;2023-09-19T14:41:08;5.10;;;4.47;;
21274;SDS011;36472;52.170;20.884;2023-09-19T14:43:37;5.53;;;4.95;;
21274;SDS011;36472;52.170;20.884;2023-09-19T14:46:06;6.82;;;4.82;;
21274;SDS011;36472;52.170;20.884;2023-09-19T14:48:37;6.68;;;5.05;;
21274;SDS011;36472;52.170;20.884;2023-09-19T14:55:39;7.53;;;5.57;;
21274;SDS011;36472;52.170;20.884;2023-09-19T14:58:11;6.82;;;5.10;;
21274;SDS011;36472;52.170;20.884;2023-09-19T15:00:40;6.47;;;4.80;;
21274;SDS011;36472;52.170;20.884;2023-09-19T15:03:12;5.40;;;4.82;;
21274;SDS011;36472;52.170;20.884;2023-09-19T15:05:42;7.93;;;4.60;;
21274;SDS011;36472;52.170;20.884;2023-09-19T15:08:11;4.93;;;4.45;;
21274;SDS011;36472;52.170;20.884;2023-09-19T15:10:42;6.00;;;4.95;;
21274;SDS011;36472;52.170;20.884;2023-09-19T15:13:20;5.05;;;4.40;;
21274;SDS011;36472;52.170;20.884;2023-09-19T15:15:49;5.32;;;4.18;;
21274;SDS011;36472;52.170;20.884;2023-09-19T15:18:18;4.97;;;4.40;;
21274;SDS011;36472;52.170;20.884;2023-09-19T15:20:47;6.88;;;5.22;;
21274;SDS011;36472;52.170;20.884;2023-09-19T15:23:17;6.25;;;5.20;;
21274;SDS011;36472;52.170;20.884;2023-09-19T15:26:00;5.80;;;4.93;;
21274;SDS011;36472;52.170;20.884;2023-09-19T15:37:36;6.20;;;5.00;;
21274;SDS011;36472;52.170;20.884;2023-09-19T15:44:38;6.03;;;5.20;;
21274;SDS011;36472;52.170;20.884;2023-09-19T15:47:08;6.25;;;5.18;;
21274;SDS011;36472;52.170;20.884;2023-09-19T15:49:37;7.22;;;5.25;;
21274;SDS011;36472;52.170;20.884;2023-09-19T15:52:06;7.15;;;5.00;;
21274;SDS011;36472;52.170;20.884;2023-09-19T15:54:35;7.18;;;5.35;;
21274;SDS011;36472;52.170;20.884;2023-09-19T16:01:42;6.13;;;5.22;;
21274;SDS011;36472;52.170;20.884;2023-09-19T16:04:13;6.35;;;5.15;;
21274;SDS011;36472;52.170;20.884;2023-09-19T16:06:44;8.95;;;5.57;;
21274;SDS011;36472;52.170;20.884;2023-09-19T16:09:13;5.55;;;4.88;;
21274;SDS011;36472;52.170;20.884;2023-09-19T16:11:43;8.27;;;4.78;;
21274;SDS011;36472;52.170;20.884;2023-09-19T16:14:12;5.28;;;4.57;;
21274;SDS011;36472;52.170;20.884;2023-09-19T16:16:45;7.78;;;4.80;;
21274;SDS011;36472;52.170;20.884;2023-09-19T16:19:14;7.88;;;4.90;;
21274;SDS011;36472;52.170;20.884;2023-09-19T16:21:44;7.50;;;5.35;;
21274;SDS011;36472;52.170;20.884;2023-09-19T16:24:13;6.57;;;4.60;;
21274;SDS011;36472;52.170;20.884;2023-09-19T16:26:44;5.35;;;4.85;;
21274;SDS011;36472;52.170;20.884;2023-09-19T16:29:13;6.93;;;4.65;;
21274;SDS011;36472;52.170;20.884;2023-09-19T16:31:42;4.95;;;4.45;;
21274;SDS011;36472;52.170;20.884;2023-09-19T16:34:13;5.13;;;4.43;;
21274;SDS011;36472;52.170;20.884;2023-09-19T16:36:42;5.90;;;5.03;;
21274;SDS011;36472;52.170;20.884;2023-09-19T16:39:11;6.75;;;4.65;;
21274;SDS011;36472;52.170;20.884;2023-09-19T16:41:40;5.30;;;4.80;;
21274;SDS011;36472;52.170;20.884;2023-09-19T16:44:10;5.18;;;4.68;;